sensor_id;sensor_type;location;lat;lon;timestamp;pressure;altitude;pressure_sealevel;temperature;humidity
56198;BME280;42700;42.524;12.052;2022-08-01T00:00:09;85771.97;;;25.17;100.00
56198;BME280;42700;42.524;12.052;2022-08-01T00:02:36;86088.38;;;25.18;100.00
56198;BME280;42700;42.524;12.052;2022-08-01T00:05:03;85751.34;;;25.21;100.00
56198;BME280;42700;42.524;12.052;2022-08-01T00:07:31;86005.28;;;25.21;100.00
56198;BME280;42700;42.524;12.052;2022-08-01T00:09:56;86392.50;;;25.19;100.00
56198;BME280;42700;42.524;12.052;2022-08-01T00:12:22;85920.63;;;25.13;100.00
56198;BME280;42700;42.524;12.052;2022-08-01T00:14:47;85697.66;;;25.10;100.00
56198;BME280;42700;42.524;12.052;2022-08-01T00:17:13;86559.00;;;25.10;100.00
56198;BME280;42700;42.524;12.052;2022-08-01T00:19:38;86776.06;;;25.07;100.00
56198;BME280;42700;42.524;12.052;2022-08-01T00:22:04;87046.25;;;25.06;100.00
56198;BME280;42700;42.524;12.052;2022-08-01T00:24:29;86730.75;;;25.07;100.00
56198;BME280;42700;42.524;12.052;2022-08-01T00:26:54;86832.63;;;25.10;100.00
56198;BME280;42700;42.524;12.052;2022-08-01T00:29:20;85609.16;;;25.13;100.00
56198;BME280;42700;42.524;12.052;2022-08-01T00:31:45;85930.00;;;25.19;100.00
56198;BME280;42700;42.524;12.052;2022-08-01T00:34:11;86584.69;;;25.17;100.00
56198;BME280;42700;42.524;12.052;2022-08-01T00:36:36;86687.63;;;25.17;100.00
56198;BME280;42700;42.524;12.052;2022-08-01T00:39:02;85905.59;;;25.19;100.00
56198;BME280;42700;42.524;12.052;2022-08-01T00:41:27;85097.13;;;25.20;100.00
56198;BME280;42700;42.524;12.052;2022-08-01T00:43:53;84670.91;;;25.26;100.00
56198;BME280;42700;42.524;12.052;2022-08-01T00:46:18;84294.59;;;25.28;100.00
56198;BME280;42700;42.524;12.052;2022-08-01T00:48:44;83289.88;;;25.26;100.00
56198;BME280;42700;42.524;12.052;2022-08-01T00:51:09;83552.50;;;25.26;100.00
56198;BME280;42700;42.524;12.052;2022-08-01T00:53:35;82716.03;;;25.28;100.00
56198;BME280;42700;42.524;12.052;2022-08-01T00:56:01;82776.19;;;25.26;100.00
56198;BME280;42700;42.524;12.052;2022-08-01T00:58:26;82393.72;;;25.21;100.00
56198;BME280;42700;42.524;12.052;2022-08-01T01:00:54;82312.63;;;25.26;100.00
56198;BME280;42700;42.524;12.052;2022-08-01T01:03:20;81879.56;;;25.26;100.00
56198;BME280;42700;42.524;12.052;2022-08-01T01:05:48;82376.78;;;25.21;100.00
56198;BME280;42700;42.524;12.052;2022-08-01T01:08:17;80648.97;;;25.24;100.00
56198;BME280;42700;42.524;12.052;2022-08-01T01:13:15;81148.88;;;25.26;100.00
56198;BME280;42700;42.524;12.052;2022-08-01T01:15:46;80350.72;;;25.19;100.00
56198;BME280;42700;42.524;12.052;2022-08-01T01:18:14;81150.16;;;25.14;100.00
56198;BME280;42700;42.524;12.052;2022-08-01T01:20:43;80241.16;;;25.18;100.00
56198;BME280;42700;42.524;12.052;2022-08-01T01:23:21;81085.22;;;25.18;100.00
56198;BME280;42700;42.524;12.052;2022-08-01T01:26:09;80410.94;;;25.12;100.00
56198;BME280;42700;42.524;12.052;2022-08-01T01:31:06;80223.72;;;25.01;100.00
56198;BME280;42700;42.524;12.052;2022-08-01T01:33:34;81035.09;;;25.01;100.00
56198;BME280;42700;42.524;12.052;2022-08-01T01:36:03;81989.38;;;25.02;100.00
56198;BME280;42700;42.524;12.052;2022-08-01T01:38:32;82045.41;;;24.98;100.00
56198;BME280;42700;42.524;12.052;2022-08-01T01:40:58;81958.09;;;24.95;100.00
56198;BME280;42700;42.524;12.052;2022-08-01T01:43:25;81945.16;;;24.90;100.00
56198;BME280;42700;42.524;12.052;2022-08-01T01:45:51;82215.66;;;24.90;100.00
56198;BME280;42700;42.524;12.052;2022-08-01T01:48:18;82607.88;;;24.88;100.00
56198;BME280;42700;42.524;12.052;2022-08-01T01:50:45;82702.47;;;24.85;100.00
56198;BME280;42700;42.524;12.052;2022-08-01T01:53:12;83354.63;;;24.88;100.00
56198;BME280;42700;42.524;12.052;2022-08-01T01:55:38;83702.38;;;24.89;100.00
56198;BME280;42700;42.524;12.052;2022-08-01T01:58:04;83529.19;;;24.89;100.00
56198;BME280;42700;42.524;12.052;2022-08-01T02:00:31;83798.50;;;24.90;100.00
56198;BME280;42700;42.524;12.052;2022-08-01T02:02:57;83453.25;;;24.84;100.00
56198;BME280;42700;42.524;12.052;2022-08-01T02:05:25;83280.09;;;24.84;100.00
56198;BME280;42700;42.524;12.052;2022-08-01T02:07:51;83540.00;;;24.89;100.00
56198;BME280;42700;42.524;12.052;2022-08-01T02:10:18;83466.44;;;24.92;100.00
56198;BME280;42700;42.524;12.052;2022-08-01T02:12:44;82656.69;;;24.92;100.00
56198;BME280;42700;42.524;12.052;2022-08-01T02:15:11;83363.00;;;24.94;100.00
56198;BME280;42700;42.524;12.052;2022-08-01T02:17:39;82320.13;;;25.01;100.00
56198;BME280;42700;42.524;12.052;2022-08-01T02:20:06;82065.72;;;24.99;100.00
56198;BME280;42700;42.524;12.052;2022-08-01T02:22:34;81834.44;;;25.00;100.00
56198;BME280;42700;42.524;12.052;2022-08-01T02:25:03;80983.66;;;24.93;100.00
56198;BME280;42700;42.524;12.052;2022-08-01T02:27:37;80394.13;;;24.86;100.00
56198;BME280;42700;42.524;12.052;2022-08-01T02:30:06;79538.41;;;24.90;100.00
56198;BME280;42700;42.524;12.052;2022-08-01T02:32:39;79618.16;;;24.89;100.00
56198;BME280;42700;42.524;12.052;2022-08-01T02:35:07;79736.38;;;24.94;100.00
56198;BME280;42700;42.524;12.052;2022-08-01T02:37:36;79531.75;;;24.84;100.00
56198;BME280;42700;42.524;12.052;2022-08-01T02:40:03;80776.75;;;24.81;100.00
56198;BME280;42700;42.524;12.052;2022-08-01T02:42:29;80929.41;;;24.64;100.00
56198;BME280;42700;42.524;12.052;2022-08-01T02:44:56;79747.72;;;24.53;100.00
56198;BME280;42700;42.524;12.052;2022-08-01T02:47:22;79358.66;;;24.53;100.00
56198;BME280;42700;42.524;12.052;2022-08-01T02:49:48;79902.38;;;24.54;100.00
56198;BME280;42700;42.524;12.052;2022-08-01T02:52:16;79994.94;;;24.54;100.00
56198;BME280;42700;42.524;12.052;2022-08-01T02:54:48;79765.94;;;24.55;100.00
56198;BME280;42700;42.524;12.052;2022-08-01T02:57:14;79702.31;;;24.64;100.00
56198;BME280;42700;42.524;12.052;2022-08-01T02:59:41;79923.91;;;24.66;100.00
56198;BME280;42700;42.524;12.052;2022-08-01T03:02:07;80694.22;;;24.64;100.00
56198;BME280;42700;42.524;12.052;2022-08-01T03:04:35;80521.25;;;24.58;100.00
56198;BME280;42700;42.524;12.052;2022-08-01T03:07:02;79815.94;;;24.54;100.00
56198;BME280;42700;42.524;12.052;2022-08-01T03:09:28;80229.38;;;24.54;100.00
56198;BME280;42700;42.524;12.052;2022-08-01T03:11:57;80130.03;;;24.54;100.00
56198;BME280;42700;42.524;12.052;2022-08-01T03:14:24;79669.97;;;24.60;100.00
56198;BME280;42700;42.524;12.052;2022-08-01T03:16:50;79847.09;;;24.44;100.00
56198;BME280;42700;42.524;12.052;2022-08-01T03:19:16;80445.59;;;24.35;100.00
56198;BME280;42700;42.524;12.052;2022-08-01T03:21:43;81743.13;;;24.27;100.00
56198;BME280;42700;42.524;12.052;2022-08-01T03:24:09;82223.13;;;24.14;100.00
56198;BME280;42700;42.524;12.052;2022-08-01T03:26:36;82800.59;;;24.10;100.00
56198;BME280;42700;42.524;12.052;2022-08-01T03:29:03;83191.56;;;24.05;100.00
56198;BME280;42700;42.524;12.052;2022-08-01T03:31:32;83725.03;;;24.00;100.00
56198;BME280;42700;42.524;12.052;2022-08-01T03:33:59;84296.19;;;23.93;100.00
56198;BME280;42700;42.524;12.052;2022-08-01T03:36:25;85138.56;;;23.81;100.00
56198;BME280;42700;42.524;12.052;2022-08-01T03:38:55;86093.56;;;23.75;100.00
56198;BME280;42700;42.524;12.052;2022-08-01T03:41:22;87212.78;;;23.75;100.00
56198;BME280;42700;42.524;12.052;2022-08-01T03:43:53;88051.03;;;23.75;100.00
56198;BME280;42700;42.524;12.052;2022-08-01T03:46:30;88393.31;;;23.82;100.00
56198;BME280;42700;42.524;12.052;2022-08-01T03:48:58;88897.44;;;23.85;100.00
56198;BME280;42700;42.524;12.052;2022-08-01T03:51:25;88710.00;;;23.79;100.00
56198;BME280;42700;42.524;12.052;2022-08-01T03:53:52;89147.44;;;23.78;100.00
56198;BME280;42700;42.524;12.052;2022-08-01T03:56:19;89577.13;;;23.80;100.00
56198;BME280;42700;42.524;12.052;2022-08-01T03:58:46;89849.50;;;23.73;100.00
56198;BME280;42700;42.524;12.052;2022-08-01T04:01:11;90287.72;;;23.64;100.00
56198;BME280;42700;42.524;12.052;2022-08-01T04:03:38;90739.91;;;23.50;100.00
56198;BME280;42700;42.524;12.052;2022-08-01T04:06:04;91392.34;;;23.45;100.00
56198;BME280;42700;42.524;12.052;2022-08-01T04:08:39;91327.31;;;23.52;100.00
56198;BME280;42700;42.524;12.052;2022-08-01T04:11:05;91388.00;;;23.51;100.00
56198;BME280;42700;42.524;12.052;2022-08-01T04:13:32;91334.31;;;23.49;100.00
56198;BME280;42700;42.524;12.052;2022-08-01T04:15:58;91484.69;;;23.47;100.00
56198;BME280;42700;42.524;12.052;2022-08-01T04:18:24;91627.72;;;23.45;100.00
56198;BME280;42700;42.524;12.052;2022-08-01T04:20:49;91624.28;;;23.40;100.00
56198;BME280;42700;42.524;12.052;2022-08-01T04:23:16;91677.63;;;23.40;100.00
56198;BME280;42700;42.524;12.052;2022-08-01T04:25:42;91332.13;;;23.40;100.00
56198;BME280;42700;42.524;12.052;2022-08-01T04:28:10;90552.31;;;23.44;100.00
56198;BME280;42700;42.524;12.052;2022-08-01T04:30:41;90399.09;;;23.50;100.00
56198;BME280;42700;42.524;12.052;2022-08-01T04:33:07;90287.88;;;23.48;100.00
56198;BME280;42700;42.524;12.052;2022-08-01T04:35:34;89625.28;;;23.48;100.00
56198;BME280;42700;42.524;12.052;2022-08-01T04:38:02;89799.25;;;23.45;100.00
56198;BME280;42700;42.524;12.052;2022-08-01T04:40:28;89475.69;;;23.42;100.00
56198;BME280;42700;42.524;12.052;2022-08-01T04:42:54;89889.72;;;23.53;100.00
56198;BME280;42700;42.524;12.052;2022-08-01T04:45:20;89956.75;;;23.49;100.00
56198;BME280;42700;42.524;12.052;2022-08-01T04:47:47;89940.19;;;23.47;100.00
56198;BME280;42700;42.524;12.052;2022-08-01T04:50:13;88472.03;;;23.52;100.00
56198;BME280;42700;42.524;12.052;2022-08-01T04:52:38;88302.28;;;23.73;100.00
56198;BME280;42700;42.524;12.052;2022-08-01T04:55:07;87644.47;;;23.67;100.00
56198;BME280;42700;42.524;12.052;2022-08-01T04:57:36;87666.72;;;23.90;100.00
56198;BME280;42700;42.524;12.052;2022-08-01T05:00:02;86773.94;;;23.94;100.00
56198;BME280;42700;42.524;12.052;2022-08-01T05:02:28;86686.38;;;23.97;100.00
56198;BME280;42700;42.524;12.052;2022-08-01T05:04:54;86769.34;;;24.02;100.00
56198;BME280;42700;42.524;12.052;2022-08-01T05:07:20;86786.38;;;24.10;100.00
56198;BME280;42700;42.524;12.052;2022-08-01T05:09:46;86618.22;;;24.20;100.00
56198;BME280;42700;42.524;12.052;2022-08-01T05:12:11;85608.56;;;24.19;100.00
56198;BME280;42700;42.524;12.052;2022-08-01T05:14:37;85226.06;;;24.40;100.00
56198;BME280;42700;42.524;12.052;2022-08-01T05:17:03;84920.09;;;24.45;100.00
56198;BME280;42700;42.524;12.052;2022-08-01T05:19:29;83062.16;;;24.47;100.00
56198;BME280;42700;42.524;12.052;2022-08-01T05:21:57;82824.50;;;24.74;100.00
56198;BME280;42700;42.524;12.052;2022-08-01T05:24:23;81997.72;;;24.82;100.00
56198;BME280;42700;42.524;12.052;2022-08-01T05:26:48;79962.97;;;24.77;100.00
56198;BME280;42700;42.524;12.052;2022-08-01T05:29:14;80914.75;;;25.08;100.00
56198;BME280;42700;42.524;12.052;2022-08-01T05:31:40;79766.50;;;25.15;100.00
56198;BME280;42700;42.524;12.052;2022-08-01T05:34:05;78826.59;;;25.20;100.00
56198;BME280;42700;42.524;12.052;2022-08-01T05:36:31;78413.84;;;25.32;100.00
56198;BME280;42700;42.524;12.052;2022-08-01T05:38:56;76691.50;;;25.21;100.00
56198;BME280;42700;42.524;12.052;2022-08-01T05:41:22;76295.25;;;25.46;100.00
56198;BME280;42700;42.524;12.052;2022-08-01T05:43:47;75892.91;;;25.57;100.00
56198;BME280;42700;42.524;12.052;2022-08-01T05:46:13;74732.59;;;25.63;100.00
56198;BME280;42700;42.524;12.052;2022-08-01T05:48:38;74659.72;;;25.83;100.00
56198;BME280;42700;42.524;12.052;2022-08-01T05:51:04;73812.63;;;25.85;100.00
56198;BME280;42700;42.524;12.052;2022-08-01T05:53:29;73590.50;;;26.07;100.00
56198;BME280;42700;42.524;12.052;2022-08-01T05:55:55;71393.72;;;25.94;100.00
56198;BME280;42700;42.524;12.052;2022-08-01T05:58:20;72336.22;;;26.30;100.00
56198;BME280;42700;42.524;12.052;2022-08-01T06:00:46;70104.00;;;26.12;100.00
56198;BME280;42700;42.524;12.052;2022-08-01T06:03:11;71308.00;;;26.48;100.00
56198;BME280;42700;42.524;12.052;2022-08-01T06:05:37;72641.75;;;26.78;100.00
56198;BME280;42700;42.524;12.052;2022-08-01T06:08:02;70999.88;;;26.69;100.00
56198;BME280;42700;42.524;12.052;2022-08-01T06:10:28;69955.22;;;26.68;100.00
56198;BME280;42700;42.524;12.052;2022-08-01T06:12:54;70982.94;;;26.78;100.00
56198;BME280;42700;42.524;12.052;2022-08-01T06:15:19;72170.53;;;27.10;100.00
56198;BME280;42700;42.524;12.052;2022-08-01T06:17:45;70129.59;;;27.05;99.34
56198;BME280;42700;42.524;12.052;2022-08-01T06:20:10;67969.75;;;26.80;97.09
56198;BME280;42700;42.524;12.052;2022-08-01T06:22:36;71723.56;;;27.39;100.00
56198;BME280;42700;42.524;12.052;2022-08-01T06:25:01;70460.13;;;27.36;97.33
56198;BME280;42700;42.524;12.052;2022-08-01T06:27:27;72920.03;;;27.73;100.00
56198;BME280;42700;42.524;12.052;2022-08-01T06:29:52;70139.09;;;27.37;97.09
56198;BME280;42700;42.524;12.052;2022-08-01T06:32:21;69875.81;;;27.60;96.51
56198;BME280;42700;42.524;12.052;2022-08-01T06:34:51;70272.00;;;27.79;99.85
56198;BME280;42700;42.524;12.052;2022-08-01T06:37:17;68125.25;;;27.54;94.18
56198;BME280;42700;42.524;12.052;2022-08-01T06:39:42;70911.97;;;28.10;97.97
56198;BME280;42700;42.524;12.052;2022-08-01T06:42:08;72602.38;;;28.27;96.21
56198;BME280;42700;42.524;12.052;2022-08-01T06:44:34;71366.66;;;28.33;93.98
56198;BME280;42700;42.524;12.052;2022-08-01T06:47:00;69281.06;;;28.21;94.49
56198;BME280;42700;42.524;12.052;2022-08-01T06:49:25;69628.56;;;28.21;93.91
56198;BME280;42700;42.524;12.052;2022-08-01T06:51:51;71039.25;;;28.45;96.33
56198;BME280;42700;42.524;12.052;2022-08-01T06:54:16;72701.53;;;28.51;97.66
56198;BME280;42700;42.524;12.052;2022-08-01T06:56:42;68934.34;;;28.16;91.86
56198;BME280;42700;42.524;12.052;2022-08-01T06:59:08;68496.13;;;28.36;90.88
56198;BME280;42700;42.524;12.052;2022-08-01T07:01:33;73674.28;;;28.88;100.00
56198;BME280;42700;42.524;12.052;2022-08-01T07:03:58;72054.56;;;28.78;95.97
56198;BME280;42700;42.524;12.052;2022-08-01T07:06:24;74438.63;;;28.92;100.00
56198;BME280;42700;42.524;12.052;2022-08-01T07:08:50;76821.09;;;29.04;100.00
56198;BME280;42700;42.524;12.052;2022-08-01T07:11:16;79931.09;;;29.17;100.00
56198;BME280;42700;42.524;12.052;2022-08-01T07:13:42;80308.44;;;28.96;100.00
56198;BME280;42700;42.524;12.052;2022-08-01T07:16:07;83473.94;;;29.32;100.00
56198;BME280;42700;42.524;12.052;2022-08-01T07:18:33;81865.16;;;28.98;100.00
56198;BME280;42700;42.524;12.052;2022-08-01T07:20:59;84753.91;;;29.29;100.00
56198;BME280;42700;42.524;12.052;2022-08-01T07:23:24;83947.97;;;29.30;100.00
56198;BME280;42700;42.524;12.052;2022-08-01T07:25:49;82697.91;;;29.18;100.00
56198;BME280;42700;42.524;12.052;2022-08-01T07:28:17;81421.47;;;29.12;100.00
56198;BME280;42700;42.524;12.052;2022-08-01T07:30:43;84017.88;;;29.41;100.00
56198;BME280;42700;42.524;12.052;2022-08-01T07:33:09;82447.00;;;29.42;100.00
56198;BME280;42700;42.524;12.052;2022-08-01T07:35:35;85012.53;;;29.88;100.00
56198;BME280;42700;42.524;12.052;2022-08-01T07:38:04;85486.53;;;30.23;100.00
56198;BME280;42700;42.524;12.052;2022-08-01T07:40:29;84007.09;;;30.19;100.00
56198;BME280;42700;42.524;12.052;2022-08-01T07:42:55;78700.53;;;29.61;94.79
56198;BME280;42700;42.524;12.052;2022-08-01T07:45:20;77654.28;;;29.76;93.45
56198;BME280;42700;42.524;12.052;2022-08-01T07:47:46;77655.38;;;30.03;93.72
56198;BME280;42700;42.524;12.052;2022-08-01T07:50:11;75271.16;;;29.92;94.69
56198;BME280;42700;42.524;12.052;2022-08-01T07:52:37;76800.28;;;30.38;96.62
56198;BME280;42700;42.524;12.052;2022-08-01T07:55:03;73198.44;;;29.77;92.83
56198;BME280;42700;42.524;12.052;2022-08-01T07:57:29;76102.94;;;30.29;94.61
56198;BME280;42700;42.524;12.052;2022-08-01T07:59:54;71645.75;;;29.95;88.97
56198;BME280;42700;42.524;12.052;2022-08-01T08:02:20;72268.84;;;30.12;89.38
56198;BME280;42700;42.524;12.052;2022-08-01T08:04:45;74291.47;;;30.58;92.88
56198;BME280;42700;42.524;12.052;2022-08-01T08:07:11;72927.38;;;30.51;90.87
56198;BME280;42700;42.524;12.052;2022-08-01T08:09:36;70521.31;;;30.32;84.81
56198;BME280;42700;42.524;12.052;2022-08-01T08:12:02;72645.06;;;30.93;90.64
56198;BME280;42700;42.524;12.052;2022-08-01T08:14:27;71294.16;;;30.93;84.84
56198;BME280;42700;42.524;12.052;2022-08-01T08:16:54;68134.34;;;30.71;82.11
56198;BME280;42700;42.524;12.052;2022-08-01T08:19:19;71306.34;;;31.27;82.31
56198;BME280;42700;42.524;12.052;2022-08-01T08:21:45;68331.78;;;31.09;82.43
56198;BME280;42700;42.524;12.052;2022-08-01T08:24:11;70235.09;;;31.45;84.50
56198;BME280;42700;42.524;12.052;2022-08-01T08:26:50;69835.78;;;31.46;85.41
56198;BME280;42700;42.524;12.052;2022-08-01T08:29:16;66188.44;;;31.23;74.99
56198;BME280;42700;42.524;12.052;2022-08-01T08:31:41;65542.78;;;30.99;79.52
56198;BME280;42700;42.524;12.052;2022-08-01T08:34:07;66379.88;;;31.19;79.58
56198;BME280;42700;42.524;12.052;2022-08-01T08:36:32;68251.88;;;31.72;78.89
56198;BME280;42700;42.524;12.052;2022-08-01T08:38:58;67780.59;;;31.85;75.75
56198;BME280;42700;42.524;12.052;2022-08-01T08:41:30;65878.63;;;31.76;75.49
56198;BME280;42700;42.524;12.052;2022-08-01T08:43:56;67397.44;;;32.10;74.99
56198;BME280;42700;42.524;12.052;2022-08-01T08:46:25;71811.94;;;32.64;80.10
56198;BME280;42700;42.524;12.052;2022-08-01T08:48:52;70484.38;;;32.75;78.14
56198;BME280;42700;42.524;12.052;2022-08-01T08:51:17;66373.31;;;32.31;67.84
56198;BME280;42700;42.524;12.052;2022-08-01T08:53:44;60176.88;;;31.64;64.57
56198;BME280;42700;42.524;12.052;2022-08-01T08:56:12;63652.56;;;32.27;68.05
56198;BME280;42700;42.524;12.052;2022-08-01T08:58:38;64543.66;;;32.50;72.13
56198;BME280;42700;42.524;12.052;2022-08-01T09:01:05;65026.06;;;32.81;68.87
56198;BME280;42700;42.524;12.052;2022-08-01T09:03:32;66152.75;;;33.04;65.54
56198;BME280;42700;42.524;12.052;2022-08-01T09:05:58;64173.63;;;32.92;62.08
56198;BME280;42700;42.524;12.052;2022-08-01T09:08:23;67238.50;;;33.61;71.81
56198;BME280;42700;42.524;12.052;2022-08-01T09:10:49;64990.56;;;33.27;61.00
56198;BME280;42700;42.524;12.052;2022-08-01T09:13:14;61726.88;;;32.93;60.65
56198;BME280;42700;42.524;12.052;2022-08-01T09:15:44;61791.13;;;32.95;62.29
56198;BME280;42700;42.524;12.052;2022-08-01T09:21:11;70855.41;;;34.27;72.27
56198;BME280;42700;42.524;12.052;2022-08-01T09:26:10;66505.31;;;34.11;68.71
56198;BME280;42700;42.524;12.052;2022-08-01T09:28:36;67440.03;;;34.55;61.14
56198;BME280;42700;42.524;12.052;2022-08-01T09:31:08;64544.16;;;34.43;49.06
56198;BME280;42700;42.524;12.052;2022-08-01T09:33:54;58037.31;;;33.49;45.05
56198;BME280;42700;42.524;12.052;2022-08-01T09:36:20;57999.16;;;33.49;49.25
56198;BME280;42700;42.524;12.052;2022-08-01T09:38:46;62655.53;;;34.40;50.10
56198;BME280;42700;42.524;12.052;2022-08-01T09:41:12;64643.84;;;34.78;52.42
56198;BME280;42700;42.524;12.052;2022-08-01T09:43:37;61304.94;;;34.44;46.54
56198;BME280;42700;42.524;12.052;2022-08-01T09:46:10;65860.78;;;35.31;50.41
56198;BME280;42700;42.524;12.052;2022-08-01T09:48:36;69690.38;;;35.87;45.02
56198;BME280;42700;42.524;12.052;2022-08-01T09:51:04;74793.00;;;36.53;63.22
56198;BME280;42700;42.524;12.052;2022-08-01T09:53:40;66387.81;;;35.47;48.14
56198;BME280;42700;42.524;12.052;2022-08-01T09:56:09;69182.41;;;36.06;41.11
56198;BME280;42700;42.524;12.052;2022-08-01T10:01:46;77584.03;;;37.12;69.60
56198;BME280;42700;42.524;12.052;2022-08-01T10:04:13;79415.91;;;37.41;64.32
56198;BME280;42700;42.524;12.052;2022-08-01T10:06:40;75152.31;;;37.27;49.59
56198;BME280;42700;42.524;12.052;2022-08-01T10:09:08;81164.84;;;37.84;67.77
56198;BME280;42700;42.524;12.052;2022-08-01T10:11:34;80389.94;;;37.78;65.77
56198;BME280;42700;42.524;12.052;2022-08-01T10:14:02;79887.53;;;37.86;46.17
56198;BME280;42700;42.524;12.052;2022-08-01T10:16:27;74179.94;;;37.34;42.97
56198;BME280;42700;42.524;12.052;2022-08-01T10:18:53;71617.63;;;37.16;42.62
56198;BME280;42700;42.524;12.052;2022-08-01T10:21:19;72146.13;;;37.61;48.48
56198;BME280;42700;42.524;12.052;2022-08-01T10:23:45;63686.66;;;36.41;33.53
56198;BME280;42700;42.524;12.052;2022-08-01T10:26:11;73536.59;;;37.85;58.25
56198;BME280;42700;42.524;12.052;2022-08-01T10:28:37;67889.69;;;37.25;34.64
56198;BME280;42700;42.524;12.052;2022-08-01T10:31:03;73858.56;;;38.15;58.98
56198;BME280;42700;42.524;12.052;2022-08-01T10:33:29;62664.53;;;36.63;31.76
56198;BME280;42700;42.524;12.052;2022-08-01T10:35:55;75028.53;;;38.34;59.55
56198;BME280;42700;42.524;12.052;2022-08-01T10:38:21;74180.69;;;38.26;41.51
56198;BME280;42700;42.524;12.052;2022-08-01T10:40:48;78586.59;;;39.04;49.66
56198;BME280;42700;42.524;12.052;2022-08-01T10:43:14;81160.41;;;39.58;52.72
56198;BME280;42700;42.524;12.052;2022-08-01T10:45:42;81263.50;;;39.57;36.74
56198;BME280;42700;42.524;12.052;2022-08-01T10:48:14;71494.13;;;38.66;27.16
56198;BME280;42700;42.524;12.052;2022-08-01T10:53:16;83500.31;;;40.17;48.87
56198;BME280;42700;42.524;12.052;2022-08-01T10:56:00;79241.44;;;39.82;34.63
56198;BME280;42700;42.524;12.052;2022-08-01T10:58:27;81059.28;;;40.25;37.00
56198;BME280;42700;42.524;12.052;2022-08-01T11:03:38;75062.16;;;39.67;41.39
56198;BME280;42700;42.524;12.052;2022-08-01T11:06:03;77951.56;;;40.10;37.81
56198;BME280;42700;42.524;12.052;2022-08-01T11:08:29;81823.34;;;40.54;44.38
56198;BME280;42700;42.524;12.052;2022-08-01T11:11:01;78475.03;;;40.19;40.38
56198;BME280;42700;42.524;12.052;2022-08-01T11:14:00;80464.69;;;40.51;31.39
56198;BME280;42700;42.524;12.052;2022-08-01T11:16:25;78364.78;;;40.31;35.35
56198;BME280;42700;42.524;12.052;2022-08-01T11:18:51;77825.88;;;40.38;34.50
56198;BME280;42700;42.524;12.052;2022-08-01T11:21:17;76590.22;;;40.28;30.39
56198;BME280;42700;42.524;12.052;2022-08-01T11:23:47;73278.50;;;39.77;29.01
56198;BME280;42700;42.524;12.052;2022-08-01T11:26:13;72646.00;;;39.70;27.70
56198;BME280;42700;42.524;12.052;2022-08-01T11:28:41;78111.88;;;40.58;33.73
56198;BME280;42700;42.524;12.052;2022-08-01T11:38:38;75130.56;;;40.23;31.94
56198;BME280;42700;42.524;12.052;2022-08-01T11:41:15;70041.97;;;39.46;28.11
56198;BME280;42700;42.524;12.052;2022-08-01T11:49:25;73480.72;;;40.12;28.29
56198;BME280;42700;42.524;12.052;2022-08-01T11:52:04;75507.75;;;40.47;32.80
56198;BME280;42700;42.524;12.052;2022-08-01T11:54:41;71675.41;;;39.90;26.66
56198;BME280;42700;42.524;12.052;2022-08-01T11:57:13;75112.06;;;40.58;28.16
56198;BME280;42700;42.524;12.052;2022-08-01T11:59:44;78429.66;;;41.13;34.48
56198;BME280;42700;42.524;12.052;2022-08-01T12:02:15;82091.28;;;41.70;34.05
56198;BME280;42700;42.524;12.052;2022-08-01T12:04:49;77951.06;;;41.20;30.25
56198;BME280;42700;42.524;12.052;2022-08-01T12:07:15;79296.44;;;41.49;31.83
56198;BME280;42700;42.524;12.052;2022-08-01T12:09:41;82665.84;;;41.99;35.10
56198;BME280;42700;42.524;12.052;2022-08-01T12:12:06;83628.13;;;42.18;32.86
56198;BME280;42700;42.524;12.052;2022-08-01T12:14:32;80456.06;;;41.80;29.53
56198;BME280;42700;42.524;12.052;2022-08-01T12:16:58;73005.00;;;40.56;27.92
56198;BME280;42700;42.524;12.052;2022-08-01T12:19:24;74511.63;;;40.88;24.29
56198;BME280;42700;42.524;12.052;2022-08-01T12:22:09;73749.84;;;40.81;30.25
56198;BME280;42700;42.524;12.052;2022-08-01T12:24:35;71213.56;;;40.01;26.70
56198;BME280;42700;42.524;12.052;2022-08-01T12:27:02;75260.81;;;40.79;26.42
56198;BME280;42700;42.524;12.052;2022-08-01T12:29:40;77762.44;;;41.22;28.35
56198;BME280;42700;42.524;12.052;2022-08-01T12:34:50;85501.91;;;42.86;26.73
56198;BME280;42700;42.524;12.052;2022-08-01T12:37:16;78816.88;;;41.56;33.11
56198;BME280;42700;42.524;12.052;2022-08-01T12:39:43;77449.66;;;40.78;28.13
56198;BME280;42700;42.524;12.052;2022-08-01T12:42:09;74616.66;;;39.87;37.55
56198;BME280;42700;42.524;12.052;2022-08-01T12:44:36;75620.09;;;40.01;30.29
56198;BME280;42700;42.524;12.052;2022-08-01T12:47:02;75188.97;;;39.69;37.53
56198;BME280;42700;42.524;12.052;2022-08-01T12:49:30;79694.22;;;40.70;35.26
56198;BME280;42700;42.524;12.052;2022-08-01T12:51:56;83469.81;;;41.60;31.59
56198;BME280;42700;42.524;12.052;2022-08-01T12:54:22;79427.47;;;41.11;29.50
56198;BME280;42700;42.524;12.052;2022-08-01T12:56:51;77589.31;;;40.30;36.84
56198;BME280;42700;42.524;12.052;2022-08-01T12:59:21;83361.94;;;41.31;38.72
56198;BME280;42700;42.524;12.052;2022-08-01T13:01:49;75410.00;;;40.33;30.21
56198;BME280;42700;42.524;12.052;2022-08-01T13:04:14;60368.19;;;37.29;31.69
56198;BME280;42700;42.524;12.052;2022-08-01T13:06:44;62190.84;;;37.25;31.08
56198;BME280;42700;42.524;12.052;2022-08-01T13:09:10;71979.03;;;39.13;35.08
56198;BME280;42700;42.524;12.052;2022-08-01T13:11:37;74021.78;;;39.79;31.06
56198;BME280;42700;42.524;12.052;2022-08-01T13:14:03;78711.13;;;40.68;32.81
56198;BME280;42700;42.524;12.052;2022-08-01T13:16:29;69765.34;;;39.11;30.75
56198;BME280;42700;42.524;12.052;2022-08-01T13:18:55;70305.97;;;39.17;29.50